Time;durP1;ratioP1;P1;durP2;ratioP2;P2;SDS_P1;SDS_P2;PMS_P1;PMS_P2;Temp;Humidity;BMP_temperature;BMP_pressure;BME280_temperature;BME280_humidity;BME280_pressure;Samples;Min_cycle;Max_cycle;Signal;HPM_P1;HPM_P2
2022/07/22 00:01:25;;;;;;;11.45;5.50;;;;;;;13.24;70.28;94867.22;1704029;83;21195;-58
2022/07/22 00:03:54;;;;;;;15.08;5.80;;;;;;;13.22;70.44;94862.75;1705806;83;21558;-55
2022/07/22 00:06:23;;;;;;;13.60;5.58;;;;;;;13.20;70.75;94867.38;1683981;83;21490;-57
2022/07/22 00:08:51;;;;;;;5.72;4.40;;;;;;;13.20;70.81;94870.73;1694763;83;21205;-55
2022/07/22 00:11:20;;;;;;;4.87;4.03;;;;;;;13.21;70.69;94879.17;1697192;83;20967;-55
2022/07/22 00:13:48;;;;;;;12.05;5.15;;;;;;;13.22;70.43;94875.18;1696436;83;21050;-55
2022/07/22 00:16:16;;;;;;;7.58;5.03;;;;;;;13.20;70.47;94874.88;1687380;83;21141;-55
2022/07/22 00:18:44;;;;;;;8.18;4.83;;;;;;;13.17;70.58;94873.82;1667535;83;21073;-55
2022/07/22 00:21:13;;;;;;;7.92;4.22;;;;;;;13.16;70.63;94872.28;1696897;83;21786;-55
2022/07/22 00:23:42;;;;;;;8.63;5.00;;;;;;;13.15;70.53;94869.38;1698800;83;21632;-55
2022/07/22 00:26:11;;;;;;;8.35;4.53;;;;;;;13.16;70.46;94872.88;1695840;84;20971;-55
2022/07/22 00:28:39;;;;;;;7.12;4.55;;;;;;;13.09;70.37;94873.95;1704231;83;21118;-56
2022/07/22 00:31:07;;;;;;;7.45;4.47;;;;;;;13.04;70.54;94876.58;1690510;84;21647;-56
2022/07/22 00:33:37;;;;;;;6.22;3.67;;;;;;;13.03;70.58;94872.26;1705998;83;21204;-55
2022/07/22 00:36:06;;;;;;;9.30;4.08;;;;;;;13.00;70.67;94874.56;1714079;83;21545;-55
2022/07/22 00:38:35;;;;;;;13.20;4.47;;;;;;;12.98;71.42;94871.49;1681255;84;21549;-55
2022/07/22 00:41:03;;;;;;;8.98;4.30;;;;;;;12.97;71.95;94881.01;1700872;83;21078;-57
2022/07/22 00:44:01;;;;;;;7.50;4.37;;;;;;;12.94;71.92;94870.26;1700005;83;21260;-55
2022/07/22 00:46:31;;;;;;;7.35;4.10;;;;;;;12.96;72.00;94880.86;1694911;83;21174;-55
2022/07/22 00:49:02;;;;;;;5.17;4.12;;;;;;;12.96;71.73;94876.71;1704904;83;21426;-55
2022/07/22 00:51:31;;;;;;;7.03;4.40;;;;;;;12.95;71.62;94882.08;1692377;83;21466;-55
2022/07/22 00:54:00;;;;;;;5.12;3.83;;;;;;;12.95;71.93;94884.84;1711485;83;21517;-55
2022/07/22 00:56:29;;;;;;;5.22;4.10;;;;;;;12.96;72.03;94883.62;1700502;83;21572;-55
2022/07/22 00:59:01;;;;;;;4.53;3.60;;;;;;;12.94;72.12;94879.17;1671028;83;20955;-55
2022/07/22 01:01:30;;;;;;;8.73;4.17;;;;;;;12.91;72.11;94875.92;1705641;83;21073;-57
2022/07/22 01:03:59;;;;;;;8.18;3.77;;;;;;;12.91;71.69;94875.29;1696894;83;20960;-57
2022/07/22 01:06:30;;;;;;;4.75;3.58;;;;;;;12.95;71.51;94876.56;1685476;83;21054;-55
2022/07/22 01:08:58;;;;;;;9.20;3.77;;;;;;;12.95;71.34;94877.94;1691230;83;21444;-56
2022/07/22 01:11:27;;;;;;;6.50;3.30;;;;;;;12.91;71.46;94875.29;1705437;83;21494;-56
2022/07/22 01:13:56;;;;;;;9.10;4.25;;;;;;;12.89;71.71;94873.60;1692320;83;21014;-55
2022/07/22 01:16:25;;;;;;;4.90;3.60;;;;;;;12.88;71.82;94874.08;1672211;84;20983;-57
2022/07/22 01:18:53;;;;;;;7.33;3.65;;;;;;;12.87;71.82;94879.45;1699965;83;21058;-55
2022/07/22 01:21:22;;;;;;;6.05;3.90;;;;;;;12.84;71.79;94874.81;1699089;83;21062;-57
2022/07/22 01:23:50;;;;;;;6.62;4.17;;;;;;;12.79;71.89;94875.44;1684603;83;21774;-55
2022/07/22 01:26:19;;;;;;;7.47;4.72;;;;;;;12.79;72.18;94868.53;1665530;84;21078;-55
2022/07/22 01:28:49;;;;;;;4.85;4.45;;;;;;;12.79;72.33;94869.91;1696908;83;20990;-55
2022/07/22 01:31:18;;;;;;;4.40;3.80;;;;;;;12.77;72.80;94870.39;1699407;83;20972;-56
2022/07/22 01:33:47;;;;;;;12.10;4.30;;;;;;;12.70;72.92;94865.77;1702435;83;21022;-55
2022/07/22 01:36:15;;;;;;;6.35;3.75;;;;;;;12.62;73.08;94873.57;1686618;83;21153;-55
2022/07/22 01:38:43;;;;;;;4.90;3.90;;;;;;;12.58;73.48;94866.05;1691099;83;21105;-55
2022/07/22 01:41:12;;;;;;;5.42;3.70;;;;;;;12.64;73.63;94862.05;1701862;83;21019;-56
2022/07/22 01:43:41;;;;;;;6.15;3.80;;;;;;;12.69;73.51;94865.62;1701225;83;21096;-56
2022/07/22 01:46:09;;;;;;;6.62;4.40;;;;;;;12.69;73.25;94866.37;1704132;83;20954;-55
2022/07/22 01:48:41;;;;;;;5.10;3.95;;;;;;;12.68;73.36;94866.84;1676462;83;21167;-55
2022/07/22 01:51:11;;;;;;;6.85;3.92;;;;;;;12.67;73.17;94861.92;1696745;83;20963;-56
2022/07/22 01:53:39;;;;;;;7.62;3.67;;;;;;;12.64;73.65;94860.08;1693616;83;21059;-54
2022/07/22 01:56:07;;;;;;;4.78;3.90;;;;;;;12.58;73.77;94860.53;1670068;84;20991;-56
2022/07/22 01:58:37;;;;;;;6.05;3.83;;;;;;;12.54;73.74;94858.52;1713189;83;21022;-55
2022/07/22 02:01:06;;;;;;;8.85;3.83;;;;;;;12.55;74.24;94857.91;1702540;83;21138;-55
2022/07/22 02:03:36;;;;;;;6.83;4.03;;;;;;;12.55;74.62;94855.91;1703440;83;21545;-56
2022/07/22 02:06:06;;;;;;;5.78;3.80;;;;;;;12.53;74.27;94860.36;1695647;83;20958;-55
2022/07/22 02:08:36;;;;;;;7.22;3.75;;;;;;;12.47;74.27;94862.17;1701144;83;20986;-56
2022/07/22 02:11:13;;;;;;;7.40;3.60;;;;;;;12.42;74.41;94862.78;1693926;83;21465;-56
2022/07/22 02:13:53;;;;;;;11.97;3.83;;;;;;;12.36;74.82;94858.30;1697977;83;21273;-55
2022/07/22 02:16:22;;;;;;;11.83;4.40;;;;;;;12.31;75.16;94856.16;1698168;83;21007;-57
2022/07/22 02:18:51;;;;;;;14.45;4.62;;;;;;;12.27;75.43;94859.05;1702634;83;21037;-55
2022/07/22 02:21:19;;;;;;;8.00;4.47;;;;;;;12.26;75.48;94856.76;1690699;83;21450;-55
2022/07/22 02:23:49;;;;;;;9.53;3.95;;;;;;;12.26;75.52;94854.75;1695776;83;21042;-55
2022/07/22 02:26:17;;;;;;;8.55;4.97;;;;;;;12.27;75.46;94848.64;1668982;83;21164;-55
2022/07/22 02:28:46;;;;;;;11.83;5.33;;;;;;;12.29;75.79;94852.46;1688668;83;21020;-55
2022/07/22 02:31:16;;;;;;;16.20;5.87;;;;;;;12.28;75.77;94845.41;1673485;84;21465;-55
2022/07/22 02:33:45;;;;;;;10.25;5.20;;;;;;;12.26;75.84;94841.59;1705940;83;21116;-55
2022/07/22 02:36:13;;;;;;;9.98;4.62;;;;;;;12.23;75.78;94854.91;1708167;83;21557;-54
2022/07/22 02:38:43;;;;;;;12.30;4.62;;;;;;;12.19;75.76;94848.16;1700571;83;21170;-56
2022/07/22 02:41:12;;;;;;;8.45;5.40;;;;;;;12.21;75.86;94851.22;1699198;83;21058;-57
2022/07/22 02:43:42;;;;;;;16.37;4.90;;;;;;;12.22;75.88;94846.45;1703165;83;21063;-55
2022/07/22 02:46:11;;;;;;;11.08;4.83;;;;;;;12.22;75.92;94856.89;1697041;83;21094;-55
2022/07/22 02:48:40;;;;;;;8.53;4.05;;;;;;;12.23;75.77;94852.91;1676876;84;21544;-55
2022/07/22 02:51:09;;;;;;;11.30;4.72;;;;;;;12.23;75.64;94849.40;1698886;83;21245;-56
2022/07/22 02:53:38;;;;;;;7.10;4.08;;;;;;;12.21;75.59;94860.88;1711325;83;21030;-55
2022/07/22 02:56:07;;;;;;;8.13;4.25;;;;;;;12.21;75.56;94857.34;1689164;83;21001;-54
2022/07/22 02:58:35;;;;;;;26.33;5.22;;;;;;;12.19;75.50;94858.41;1713542;83;20993;-56
2022/07/22 03:01:04;;;;;;;7.03;4.40;;;;;;;12.18;75.71;94862.39;1679072;83;21108;-55
2022/07/22 03:03:34;;;;;;;20.85;8.48;;;;;;;12.17;75.50;94863.61;1702616;83;21249;-55
2022/07/22 03:06:03;;;;;;;14.05;6.62;;;;;;;12.16;75.60;94857.34;1715826;83;21061;-55
2022/07/22 03:08:37;;;;;;;6.80;4.50;;;;;;;12.17;75.33;94862.23;1697571;83;21097;-55
2022/07/22 03:11:05;;;;;;;8.38;3.90;;;;;;;12.13;75.46;94859.63;1693137;83;21175;-55
2022/07/22 03:13:34;;;;;;;8.73;4.12;;;;;;;12.13;75.49;94865.15;1704989;83;21100;-55
2022/07/22 03:16:03;;;;;;;11.00;4.62;;;;;;;12.18;75.72;94871.44;1693565;83;21241;-54
2022/07/22 03:18:32;;;;;;;16.42;4.70;;;;;;;12.20;75.96;94868.99;1702508;83;20998;-55
2022/07/22 03:21:02;;;;;;;16.07;5.25;;;;;;;12.21;76.26;94869.15;1692662;83;21561;-56
2022/07/22 03:23:30;;;;;;;14.38;4.50;;;;;;;12.20;76.71;94867.61;1698664;83;21077;-54
2022/07/22 03:25:58;;;;;;;9.35;4.95;;;;;;;12.21;76.87;94863.63;1691639;83;21048;-55
2022/07/22 03:28:27;;;;;;;8.73;4.22;;;;;;;12.19;76.67;94850.91;1707023;83;21153;-56
2022/07/22 03:30:55;;;;;;;10.65;4.80;;;;;;;12.15;76.72;94849.51;1706940;83;21003;-55
2022/07/22 03:33:24;;;;;;;9.88;5.12;;;;;;;12.17;76.81;94851.98;1705429;83;21501;-59
2022/07/22 03:35:53;;;;;;;14.25;5.83;;;;;;;12.20;76.77;94869.59;1703594;83;21068;-56
2022/07/22 03:38:22;;;;;;;9.00;5.42;;;;;;;12.24;76.92;94862.72;1715099;83;21006;-57
2022/07/22 03:40:51;;;;;;;9.20;5.05;;;;;;;12.34;76.98;94861.54;1681656;84;21082;-56
2022/07/22 03:43:21;;;;;;;22.22;6.37;;;;;;;12.43;76.62;94862.93;1695440;83;21042;-56
2022/07/22 03:45:51;;;;;;;15.70;5.28;;;;;;;12.43;76.51;94856.66;1711294;83;20974;-56
2022/07/22 03:48:20;;;;;;;8.18;5.17;;;;;;;12.50;76.58;94853.00;1698611;83;20959;-55
2022/07/22 03:50:49;;;;;;;4.65;4.12;;;;;;;12.62;76.20;94863.13;1690667;83;21026;-56
2022/07/22 03:53:18;;;;;;;8.30;4.95;;;;;;;12.81;75.99;94861.94;1696856;83;21105;-56
2022/07/22 03:55:46;;;;;;;9.53;4.70;;;;;;;13.17;75.42;94858.63;1703201;83;21129;-56
2022/07/22 03:58:17;;;;;;;7.05;4.08;;;;;;;13.35;74.32;94857.84;1707505;83;21013;-56
2022/07/22 04:00:46;;;;;;;7.80;4.40;;;;;;;13.36;73.67;94859.37;1677845;84;21556;-55
2022/07/22 04:03:14;;;;;;;8.33;4.33;;;;;;;13.32;73.34;94858.77;1698541;83;21065;-56
2022/07/22 04:05:50;;;;;;;7.62;4.60;;;;;;;13.29;73.28;94856.30;1679369;83;21163;-55
2022/07/22 04:08:22;;;;;;;6.05;4.10;;;;;;;13.33;73.40;94858.91;1711253;83;21102;-58
2022/07/22 04:10:51;;;;;;;5.05;4.20;;;;;;;13.53;73.28;94860.58;1700915;83;21088;-56
2022/07/22 04:13:19;;;;;;;7.47;4.47;;;;;;;13.86;72.72;94860.05;1697978;83;21084;-56
2022/07/22 04:15:49;;;;;;;8.83;4.55;;;;;;;14.19;71.88;94853.36;1682528;84;21046;-56
2022/07/22 04:18:18;;;;;;;7.50;4.17;;;;;;;14.38;70.96;94847.14;1683257;84;21091;-58
2022/07/22 04:20:48;;;;;;;13.75;5.12;;;;;;;14.43;70.22;94858.34;1694006;83;21513;-56
2022/07/22 04:23:16;;;;;;;5.10;4.58;;;;;;;14.43;69.89;94848.66;1698625;83;20975;-57
2022/07/22 04:25:45;;;;;;;7.42;4.42;;;;;;;14.42;69.62;94853.27;1683681;83;21203;-55
2022/07/22 04:28:13;;;;;;;5.60;4.42;;;;;;;14.40;69.56;94852.34;1690508;83;20963;-56
2022/07/22 04:30:44;;;;;;;9.48;4.37;;;;;;;14.39;69.19;94856.97;1671971;85;21847;-59
2022/07/22 04:33:13;;;;;;;6.83;4.83;;;;;;;14.36;69.19;94862.06;1685370;83;21513;-59
2022/07/22 04:35:41;;;;;;;9.88;4.42;;;;;;;14.41;69.40;94860.81;1712945;83;21342;-59
2022/07/22 04:38:17;;;;;;;9.50;4.30;;;;;;;14.45;69.00;94851.08;1698438;83;21099;-60
2022/07/22 04:40:47;;;;;;;;;;;;;;;14.46;68.42;94844.94;1694633;83;21019;-62
2022/07/22 04:43:17;;;;;;;12.30;4.53;;;;;;;14.57;68.02;94844.56;1698158;83;21818;-59
2022/07/22 04:45:45;;;;;;;5.25;4.10;;;;;;;14.79;67.54;94842.91;1697386;83;21043;-60
2022/07/22 04:48:14;;;;;;;11.30;4.25;;;;;;;15.06;66.47;94842.70;1685651;83;21564;-63
2022/07/22 04:50:43;;;;;;;6.35;3.92;;;;;;;15.29;65.54;94839.93;1688447;83;21530;-63
2022/07/22 04:53:11;;;;;;;12.03;4.72;;;;;;;15.37;64.89;94845.23;1699288;83;21002;-64
2022/07/22 04:55:40;;;;;;;14.45;4.70;;;;;;;15.39;64.71;94844.14;1704920;83;21018;-64
2022/07/22 04:58:08;;;;;;;24.47;5.80;;;;;;;15.42;64.75;94845.20;1691548;83;21026;-63
2022/07/22 05:00:38;;;;;;;10.15;4.90;;;;;;;15.43;64.80;94842.58;1695530;83;21033;-62
2022/07/22 05:03:05;;;;;;;8.23;4.15;;;;;;;15.42;64.82;94845.20;1693883;83;21023;-64
2022/07/22 05:05:34;;;;;;;10.58;4.55;;;;;;;15.41;64.48;94846.45;1682531;83;21127;-63
2022/07/22 05:08:03;;;;;;;9.03;4.53;;;;;;;15.44;64.71;94843.50;1701226;83;21121;-64
2022/07/22 05:10:32;;;;;;;10.58;5.33;;;;;;;15.50;64.80;94836.05;1684659;83;21616;-64
2022/07/22 05:13:02;;;;;;;7.35;4.47;;;;;;;15.55;64.81;94840.17;1675876;83;21497;-63
2022/07/22 05:15:30;;;;;;;11.88;4.67;;;;;;;15.56;64.58;94835.52;1672899;84;21115;-63
2022/07/22 05:17:59;;;;;;;11.50;4.28;;;;;;;15.60;64.52;94833.34;1707963;83;21014;-63
2022/07/22 05:20:30;;;;;;;8.40;4.28;;;;;;;15.66;64.42;94836.97;1701986;83;21125;-63
2022/07/22 05:22:58;;;;;;;7.72;4.47;;;;;;;15.72;64.35;94836.44;1688892;83;21473;-64
2022/07/22 05:25:29;;;;;;;10.05;4.55;;;;;;;15.77;64.41;94831.60;1710104;83;20962;-64
2022/07/22 05:27:56;;;;;;;7.58;4.75;;;;;;;15.87;64.44;94828.14;1699155;83;21022;-71
2022/07/22 05:30:36;;;;;;;5.17;4.30;;;;;;;16.00;64.53;94831.36;1694454;83;21396;-63
2022/07/22 05:33:05;;;;;;;13.60;5.97;;;;;;;16.15;64.48;94833.50;1702331;83;21206;-63
2022/07/22 05:35:47;;;;;;;7.60;4.03;;;;;;;16.28;64.27;94825.78;1707593;83;21179;-62
2022/07/22 05:38:17;;;;;;;9.15;4.67;;;;;;;16.43;63.36;94831.33;1706406;83;20972;-63
2022/07/22 05:40:45;;;;;;;8.38;4.90;;;;;;;16.50;63.08;94824.75;1695687;83;21104;-63
2022/07/22 05:43:14;;;;;;;8.70;4.25;;;;;;;16.60;63.35;94824.00;1691118;83;21147;-63
2022/07/22 05:45:41;;;;;;;13.43;5.03;;;;;;;16.68;62.88;94825.89;1667059;84;21211;-65
2022/07/22 05:48:09;;;;;;;15.60;4.95;;;;;;;16.75;62.68;94824.72;1705433;83;21101;-64
2022/07/22 05:50:40;;;;;;;9.00;5.17;;;;;;;16.85;62.68;94828.88;1668966;83;21038;-64
2022/07/22 05:53:10;;;;;;;18.00;5.45;;;;;;;16.94;62.57;94819.79;1678023;83;21034;-65
2022/07/22 05:55:38;;;;;;;14.63;5.20;;;;;;;17.05;62.29;94828.89;1684416;83;21099;-66
2022/07/22 05:58:06;;;;;;;11.60;5.03;;;;;;;17.16;62.06;94822.09;1665602;82;21337;-61
2022/07/22 06:00:35;;;;;;;13.58;5.83;;;;;;;17.25;61.87;94820.56;1687463;82;21022;-64
2022/07/22 06:03:04;;;;;;;20.55;7.08;;;;;;;17.32;61.91;94815.95;1685128;83;21055;-63
2022/07/22 06:05:35;;;;;;;17.42;5.60;;;;;;;17.40;61.80;94812.91;1695308;83;21081;-68
2022/07/22 06:08:04;;;;;;;12.47;6.00;;;;;;;17.49;61.73;94815.55;1680648;83;21005;-67
2022/07/22 06:10:47;;;;;;;13.08;5.55;;;;;;;17.63;61.63;94815.44;1688217;83;21113;-69
2022/07/22 06:13:17;;;;;;;18.02;5.90;;;;;;;17.82;61.17;94810.31;1648064;84;21069;-64
2022/07/22 06:15:45;;;;;;;8.85;4.72;;;;;;;17.97;61.36;94808.93;1697334;82;21100;-55
2022/07/22 06:18:13;;;;;;;10.50;4.75;;;;;;;18.16;60.98;94803.78;1679922;83;21178;-57
2022/07/22 06:20:42;;;;;;;13.08;5.30;;;;;;;18.32;60.76;94800.50;1682879;83;21083;-55
2022/07/22 06:23:10;;;;;;;17.40;8.88;;;;;;;18.49;60.33;94797.20;1686186;83;21280;-58
2022/07/22 06:25:38;;;;;;;15.65;7.60;;;;;;;18.64;60.25;94798.45;1667759;84;21066;-67
2022/07/22 06:28:10;;;;;;;10.23;6.00;;;;;;;18.79;60.07;94794.22;1688101;83;21710;-65
2022/07/22 06:30:38;;;;;;;10.67;6.70;;;;;;;18.93;59.68;94791.89;1686709;83;21969;-68
2022/07/22 06:33:06;;;;;;;15.25;6.75;;;;;;;19.07;59.39;94790.95;1667166;83;21036;-68
2022/07/22 06:35:37;;;;;;;11.68;4.90;;;;;;;19.19;59.22;94781.38;1654756;84;21136;-66
2022/07/22 06:38:06;;;;;;;8.15;5.03;;;;;;;19.33;58.96;94776.23;1652319;83;21113;-68
2022/07/22 06:40:37;;;;;;;8.73;4.35;;;;;;;19.47;58.80;94768.91;1681987;82;21020;-64
2022/07/22 06:43:06;;;;;;;10.23;5.15;;;;;;;19.60;58.53;94768.55;1615821;84;21270;-69
2022/07/22 06:45:43;;;;;;;8.98;4.20;;;;;;;19.72;58.26;94771.48;1640044;85;21589;-64
2022/07/22 06:48:18;;;;;;;8.50;5.03;;;;;;;19.85;57.82;94770.38;1659484;84;21150;-65
2022/07/22 06:50:46;;;;;;;7.07;4.83;;;;;;;19.98;57.67;94767.84;1622361;86;21106;-62
2022/07/22 06:53:16;;;;;;;15.08;4.97;;;;;;;20.12;57.58;94759.11;1642448;85;21121;-64
2022/07/22 06:55:45;;;;;;;9.55;5.17;;;;;;;20.28;57.22;94767.47;1657562;83;22255;-65
2022/07/22 06:58:13;;;;;;;8.43;4.95;;;;;;;20.41;56.81;94760.09;1649045;85;21133;-71
2022/07/22 07:00:42;;;;;;;7.35;4.37;;;;;;;20.55;56.69;94754.86;1661971;84;21361;-61
2022/07/22 07:03:30;;;;;;;8.80;4.40;;;;;;;20.72;56.60;94747.84;1646906;85;20916;-61
2022/07/22 07:06:00;;;;;;;10.23;4.67;;;;;;;20.91;56.16;94747.44;1694101;83;21046;-57
2022/07/22 07:08:31;;;;;;;13.22;4.58;;;;;;;21.08;55.91;94745.34;1675532;83;21093;-61
2022/07/22 07:11:01;;;;;;;11.85;5.37;;;;;;;21.23;55.70;94745.75;1683471;83;21086;-69
2022/07/22 07:13:31;;;;;;;12.00;5.08;;;;;;;21.40;56.10;94746.44;1666547;84;21800;-65
2022/07/22 07:15:59;;;;;;;5.58;4.50;;;;;;;21.58;55.81;94741.63;1693476;82;21052;-69
2022/07/22 07:18:27;;;;;;;8.65;5.03;;;;;;;21.76;55.70;94735.42;1694791;83;21568;-71
2022/07/22 07:20:55;;;;;;;8.90;4.42;;;;;;;21.96;55.77;94736.42;1662597;83;21054;-70
2022/07/22 07:23:23;;;;;;;7.08;4.42;;;;;;;22.14;55.24;94734.48;1686355;82;21026;-68
2022/07/22 07:25:52;;;;;;;10.30;4.85;;;;;;;22.34;55.87;94732.67;1681032;83;21161;-69
2022/07/22 07:28:19;;;;;;;7.33;4.15;;;;;;;22.51;55.60;94725.52;1678102;82;21210;-66
2022/07/22 07:30:49;;;;;;;11.63;4.80;;;;;;;22.65;55.66;94725.11;1686980;83;21022;-65
2022/07/22 07:33:40;;;;;;;6.37;4.50;;;;;;;22.82;55.29;94732.70;1696878;83;21050;-64
2022/07/22 07:36:25;;;;;;;9.75;4.45;;;;;;;22.95;55.02;94723.00;1671631;83;21109;-63
2022/07/22 07:38:53;;;;;;;9.35;4.40;;;;;;;23.12;54.52;94713.77;1680565;83;21314;-59
2022/07/22 07:41:22;;;;;;;10.00;4.53;;;;;;;23.32;54.01;94714.66;1656519;83;21660;-63
2022/07/22 07:43:52;;;;;;;7.28;4.10;;;;;;;23.48;53.81;94707.28;1682067;83;21442;-64
2022/07/22 07:46:20;;;;;;;6.95;4.55;;;;;;;23.65;52.93;94711.38;1673440;83;21664;-64
2022/07/22 07:48:50;;;;;;;9.13;4.40;;;;;;;23.80;53.08;94710.91;1678796;83;21123;-65
2022/07/22 07:51:18;;;;;;;6.95;4.47;;;;;;;23.97;53.66;94706.55;1672282;83;21338;-66
2022/07/22 07:53:46;;;;;;;7.72;4.17;;;;;;;24.15;53.71;94707.92;1674992;83;21039;-64
2022/07/22 07:56:16;;;;;;;9.05;4.25;;;;;;;24.30;52.61;94696.16;1691638;83;21505;-66
2022/07/22 07:58:45;;;;;;;12.58;4.35;;;;;;;24.43;51.50;94701.16;1629931;85;21094;-65
2022/07/22 08:01:13;;;;;;;13.05;4.55;;;;;;;24.58;50.70;94700.69;1652891;84;21082;-66
2022/07/22 08:03:42;;;;;;;12.47;4.58;;;;;;;24.74;50.38;94702.44;1663052;84;21785;-64
2022/07/22 08:06:11;;;;;;;7.95;4.62;;;;;;;24.90;50.14;94704.19;1669449;83;21202;-64
2022/07/22 08:08:40;;;;;;;7.60;4.45;;;;;;;25.08;49.84;94700.50;1648422;85;21187;-67
2022/07/22 08:11:09;;;;;;;9.20;4.33;;;;;;;25.26;50.13;94701.02;1642328;85;21055;-64
2022/07/22 08:13:40;;;;;;;5.45;3.92;;;;;;;25.44;50.28;94701.53;1609794;87;21100;-62
2022/07/22 08:16:26;;;;;;;11.22;4.78;;;;;;;25.61;48.57;94700.52;1629088;85;21252;-66
2022/07/22 08:19:04;;;;;;;9.50;4.17;;;;;;;25.76;47.32;94699.28;1644975;86;21115;-67
2022/07/22 08:21:29;;;;;;;6.85;3.83;;;;;;;25.88;46.52;94694.27;1645531;85;21114;-66
2022/07/22 08:23:59;;;;;;;9.55;4.00;;;;;;;26.04;45.27;94695.94;1650224;85;21457;-67
2022/07/22 08:26:27;;;;;;;8.40;4.67;;;;;;;26.18;44.13;94698.16;1647099;84;21116;-67
2022/07/22 08:28:55;;;;;;;12.35;5.42;;;;;;;26.33;44.38;94696.87;1612469;86;21210;-66
2022/07/22 08:31:23;;;;;;;6.47;3.85;;;;;;;26.49;44.26;94692.16;1644846;85;21117;-67
2022/07/22 08:33:52;;;;;;;7.95;3.55;;;;;;;26.66;42.16;94694.63;1677246;83;21069;-68
2022/07/22 08:36:20;;;;;;;8.30;3.45;;;;;;;26.80;40.24;94694.64;1671505;83;21615;-67
2022/07/22 08:38:47;;;;;;;9.18;3.52;;;;;;;26.92;39.62;94694.45;1693279;83;21018;-63
2022/07/22 08:41:15;;;;;;;10.23;3.60;;;;;;;27.06;39.58;94694.42;1681785;83;21419;-64
2022/07/22 08:43:44;;;;;;;7.37;3.95;;;;;;;27.20;39.30;94698.68;1685556;83;21116;-63
2022/07/22 08:46:13;;;;;;;18.90;4.65;;;;;;;27.41;38.87;94695.78;1677349;83;21482;-63
2022/07/22 08:48:43;;;;;;;9.18;3.72;;;;;;;27.61;38.39;94687.17;1660381;83;21070;-67
2022/07/22 08:51:28;;;;;;;16.00;4.47;;;;;;;27.85;37.97;94693.03;1687104;83;21141;-66
2022/07/22 08:54:00;;;;;;;12.15;3.70;;;;;;;28.01;36.85;94696.77;1686594;83;21166;-66
2022/07/22 08:56:30;;;;;;;13.93;3.85;;;;;;;28.14;36.46;94704.44;1687104;82;21059;-66
2022/07/22 08:58:58;;;;;;;7.00;3.33;;;;;;;28.26;36.79;94694.92;1689864;83;20982;-65
2022/07/22 09:01:26;;;;;;;10.93;3.80;;;;;;;28.39;37.09;94699.03;1679307;83;21180;-64
2022/07/22 09:03:57;;;;;;;6.78;3.40;;;;;;;28.51;36.86;94693.84;1693103;83;21210;-65
2022/07/22 09:06:32;;;;;;;10.60;3.40;;;;;;;28.62;35.27;94693.45;1691879;83;21195;-64
2022/07/22 09:09:00;;;;;;;9.50;3.55;;;;;;;28.74;36.24;94698.09;1687681;83;21134;-64
2022/07/22 09:11:49;;;;;;;10.25;3.72;;;;;;;28.83;35.04;94694.67;1680337;83;21054;-68
2022/07/22 09:14:30;;;;;;;8.40;3.50;;;;;;;28.92;35.08;94693.47;1645177;84;21067;-65
2022/07/22 09:17:07;;;;;;;8.03;3.52;;;;;;;29.01;34.19;94690.71;1668473;83;21155;-63
2022/07/22 09:19:35;;;;;;;10.13;3.60;;;;;;;29.08;34.21;94694.19;1694051;83;21337;-59
2022/07/22 09:22:42;;;;;;;9.03;3.70;;;;;;;29.12;33.23;94697.41;1673616;84;21058;-59
2022/07/22 09:25:32;;;;;;;9.43;3.55;;;;;;;29.10;32.82;94689.47;1655931;84;21038;-64
2022/07/22 09:28:21;;;;;;;8.68;4.22;;;;;;;29.11;33.95;94691.65;1694425;83;21065;-65
2022/07/22 09:31:08;;;;;;;6.25;3.45;;;;;;;29.26;35.90;94687.34;1671717;83;21077;-66
2022/07/22 09:33:41;;;;;;;12.33;3.83;;;;;;;29.40;34.38;94691.46;1662975;83;21258;-67
2022/07/22 09:36:18;;;;;;;5.92;3.50;;;;;;;29.50;35.44;94685.33;1672652;83;21088;-65
2022/07/22 09:38:46;;;;;;;9.43;3.47;;;;;;;29.60;35.62;94692.66;1685415;83;21111;-65
2022/07/22 09:41:14;;;;;;;4.37;3.22;;;;;;;29.72;34.03;94694.40;1668209;84;21093;-64
2022/07/22 09:43:42;;;;;;;6.67;3.05;;;;;;;29.80;33.21;94690.85;1691988;83;21093;-66
2022/07/22 09:46:10;;;;;;;7.10;3.30;;;;;;;29.83;33.58;94693.98;1682012;83;21182;-66
2022/07/22 09:48:56;;;;;;;6.87;2.80;;;;;;;29.88;33.44;94687.33;1681094;83;21096;-69
2022/07/22 09:51:44;;;;;;;3.15;2.77;;;;;;;30.00;33.60;94693.41;1675762;83;21081;-66
2022/07/22 09:54:13;;;;;;;9.10;3.40;;;;;;;30.09;32.41;94692.80;1666946;83;21070;-65
2022/07/22 09:56:41;;;;;;;9.68;3.58;;;;;;;30.16;33.16;94699.12;1657739;84;21049;-65
2022/07/22 09:59:09;;;;;;;7.03;3.20;;;;;;;30.23;32.14;94697.65;1650893;84;21763;-64
2022/07/22 10:01:39;;;;;;;9.05;3.17;;;;;;;30.27;32.92;94702.91;1674099;83;21971;-66
2022/07/22 10:04:07;;;;;;;4.75;2.45;;;;;;;30.24;31.33;94698.39;1681517;83;21085;-63
2022/07/22 10:06:37;;;;;;;6.62;3.15;;;;;;;30.30;32.14;94694.00;1673604;83;21005;-65
2022/07/22 10:09:07;;;;;;;8.28;2.90;;;;;;;30.36;31.31;94701.61;1676058;84;21018;-64
2022/07/22 10:11:37;;;;;;;5.30;2.42;;;;;;;30.44;31.68;94696.65;1663274;83;22653;-64
2022/07/22 10:14:06;;;;;;;7.62;3.17;;;;;;;30.53;33.03;94709.47;1653313;83;21088;-68
2022/07/22 10:16:34;;;;;;;7.62;3.10;;;;;;;30.61;32.38;94701.00;1665695;83;21065;-67
2022/07/22 10:19:04;;;;;;;4.87;3.00;;;;;;;30.65;31.23;94699.92;1647965;85;21233;-65
2022/07/22 10:21:34;;;;;;;6.90;3.75;;;;;;;30.68;31.32;94706.55;1699528;83;21461;-64
2022/07/22 10:24:14;;;;;;;4.35;2.72;;;;;;;30.71;31.38;94703.27;1681757;83;21775;-66
2022/07/22 10:26:55;;;;;;;6.15;2.95;;;;;;;30.76;32.10;94690.17;1685450;83;20995;-66
2022/07/22 10:29:43;;;;;;;8.80;3.22;;;;;;;30.90;32.49;94692.80;1689057;83;21096;-66
2022/07/22 10:32:21;;;;;;;6.25;3.20;;;;;;;31.07;32.03;94699.94;1680903;83;21531;-65
2022/07/22 10:35:08;;;;;;;5.12;3.25;;;;;;;31.24;31.14;94697.89;1676565;83;21085;-66
2022/07/22 10:37:43;;;;;;;6.10;3.00;;;;;;;31.39;31.53;94702.00;1677358;82;21168;-65
2022/07/22 10:40:21;;;;;;;5.05;3.10;;;;;;;31.54;31.03;94698.99;1690943;82;21470;-66
2022/07/22 10:43:04;;;;;;;4.83;3.10;;;;;;;31.70;31.24;94700.35;1687925;83;21074;-67
2022/07/22 10:45:40;;;;;;;9.35;3.85;;;;;;;31.96;30.90;94695.36;1688370;84;21073;-70
2022/07/22 10:48:14;;;;;;;7.75;3.40;;;;;;;32.27;30.80;94689.37;1637273;84;21054;-65
2022/07/22 10:50:47;;;;;;;8.05;3.52;;;;;;;32.51;30.18;94691.27;1663912;83;21105;-64
2022/07/22 10:53:36;;;;;;;5.67;3.10;;;;;;;32.67;29.12;94690.47;1672892;83;21083;-64
2022/07/22 10:56:09;;;;;;;7.15;2.90;;;;;;;32.83;28.97;94692.41;1651018;83;21142;-64
2022/07/22 10:58:39;;;;;;;;;;;;;;;32.98;29.06;94692.90;1648832;83;21065;-55
2022/07/22 11:01:10;;;;;;;10.68;3.80;;;;;;;33.15;29.35;94700.61;1676674;83;20475;-58
2022/07/22 11:03:41;;;;;;;4.42;3.50;;;;;;;33.28;29.70;94692.40;1681742;83;21118;-56
2022/07/22 11:06:23;;;;;;;7.25;3.83;;;;;;;33.45;29.04;94702.92;1674507;83;20970;-55
2022/07/22 11:08:54;;;;;;;8.05;3.60;;;;;;;33.65;28.83;94695.21;1647150;85;21530;-63
2022/07/22 11:11:47;;;;;;;8.05;3.47;;;;;;;33.88;27.83;94694.78;1621506;86;21142;-56
2022/07/22 11:14:26;;;;;;;10.53;3.83;;;;;;;34.07;27.52;94697.70;1619718;86;21486;-59
2022/07/22 11:16:57;;;;;;;9.63;3.65;;;;;;;34.41;27.92;94691.63;1614628;86;21087;-55
2022/07/22 11:19:28;;;;;;;10.08;6.45;;;;;;;34.76;27.23;94697.03;1589189;87;21241;-58
2022/07/22 11:22:01;;;;;;;6.30;3.60;;;;;;;35.06;27.11;94689.81;1633164;85;21197;-57
2022/07/22 11:24:29;;;;;;;6.65;4.28;;;;;;;35.37;27.31;94691.30;1604257;87;21432;-58
2022/07/22 11:26:58;;;;;;;6.47;3.50;;;;;;;35.69;26.03;94684.91;1636276;86;21063;-59
2022/07/22 11:29:34;;;;;;;5.45;3.58;;;;;;;36.07;26.88;94690.30;1594166;87;21388;-56
2022/07/22 11:32:09;;;;;;;6.15;3.50;;;;;;;36.39;24.46;94680.27;1623853;86;21006;-65
2022/07/22 11:34:38;;;;;;;7.42;3.37;;;;;;;36.65;24.41;94680.52;1621189;86;21148;-61
2022/07/22 11:37:08;;;;;;;6.20;3.47;;;;;;;36.77;25.46;94678.41;1623280;86;21089;-59
2022/07/22 11:39:35;;;;;;;4.72;2.90;;;;;;;36.86;24.67;94675.36;1608881;87;21042;-61
2022/07/22 11:42:04;;;;;;;4.85;2.85;;;;;;;37.00;23.09;94680.57;1651226;83;21278;-61
2022/07/22 11:44:34;;;;;;;8.33;3.62;;;;;;;37.07;23.73;94676.02;1669650;83;21233;-60
2022/07/22 11:47:02;;;;;;;8.83;3.20;;;;;;;37.25;23.72;94673.49;1654486;84;21217;-65
2022/07/22 11:49:36;;;;;;;8.83;3.15;;;;;;;37.43;23.37;94671.72;1674501;83;21362;-59